createdAt,value
2022-11-23T00:01:30.577Z,77.26
2022-11-23T00:04:00.254Z,78.44
2022-11-23T00:06:26.955Z,77.13
2022-11-23T00:08:54.312Z,76.77
2022-11-23T00:11:23.043Z,77.37
2022-11-23T00:13:49.764Z,77.94
2022-11-23T00:16:19.237Z,77.62
2022-11-23T00:18:45.712Z,76.56
2022-11-23T00:21:15.075Z,77.16
2022-11-23T00:23:41.809Z,76.56
2022-11-23T00:26:08.599Z,76.97
2022-11-23T00:28:38.625Z,77.96
2022-11-23T00:31:06.501Z,77.16
2022-11-23T00:33:33.239Z,78.15
2022-11-23T00:36:08.563Z,76.74
2022-11-23T00:38:35.035Z,76.65
2022-11-23T00:41:10.913Z,77.56
2022-11-23T00:43:37.320Z,77.65
2022-11-23T00:46:10.136Z,76.72
2022-11-23T00:48:37.602Z,77.56
2022-11-23T00:51:07.162Z,77.20
2022-11-23T00:53:34.226Z,77.59
2022-11-23T00:56:00.754Z,78.07
2022-11-23T00:58:27.571Z,77.82
2022-11-23T01:01:09.601Z,77.86
2022-11-23T01:03:38.722Z,76.76
2022-11-23T01:06:16.786Z,76.54
2022-11-23T01:08:43.668Z,77.30
2022-11-23T01:11:12.573Z,77.85
2022-11-23T01:13:40.858Z,78.49
2022-11-23T01:16:13.058Z,77.24
2022-11-23T01:18:39.460Z,78.43
2022-11-23T01:21:06.104Z,77.88
2022-11-23T01:23:32.571Z,77.49
2022-11-23T01:26:05.689Z,77.60
2022-11-23T01:28:32.547Z,77.81
2022-11-23T01:31:14.818Z,78.02
2022-11-23T01:33:41.535Z,77.80
2022-11-23T01:36:19.964Z,78.25
2022-11-23T01:38:47.869Z,78.53
2022-11-23T01:41:17.558Z,77.49
2022-11-23T01:43:44.655Z,78.07
2022-11-23T01:46:12.085Z,78.00
2022-11-23T01:48:46.848Z,78.28
2022-11-23T01:51:16.647Z,78.34
2022-11-23T01:53:44.386Z,77.19
2022-11-23T01:56:15.403Z,77.50
2022-11-23T01:58:46.282Z,77.04
2022-11-23T02:01:14.358Z,77.07
2022-11-23T02:03:43.453Z,77.17
2022-11-23T02:06:16.366Z,78.23
2022-11-23T02:08:43.770Z,77.72
2022-11-23T02:11:12.742Z,77.92
2022-11-23T02:13:39.777Z,78.45
2022-11-23T02:16:06.362Z,77.78
2022-11-23T02:18:35.624Z,78.20
2022-11-23T02:21:03.424Z,78.48
2022-11-23T02:23:47.812Z,77.85
2022-11-23T02:26:44.027Z,78.22
2022-11-23T02:29:16.184Z,78.10
2022-11-23T02:31:42.577Z,76.88
2022-11-23T02:34:09.127Z,76.82
2022-11-23T02:36:47.431Z,77.40
2022-11-23T02:39:18.552Z,76.88
2022-11-23T02:41:48.807Z,78.03
2022-11-23T02:44:44.223Z,77.54
2022-11-23T02:47:11.677Z,77.87
2022-11-23T02:49:40.698Z,77.26
2022-11-23T02:52:08.298Z,77.45
2022-11-23T02:54:35.220Z,77.86
2022-11-23T02:57:01.782Z,77.03
2022-11-23T02:59:29.278Z,77.30
2022-11-23T03:01:55.956Z,78.49
2022-11-23T03:04:27.534Z,78.37
2022-11-23T03:06:54.406Z,77.32
2022-11-23T03:09:20.839Z,77.31
2022-11-23T03:11:47.287Z,78.08
2022-11-23T03:14:13.721Z,77.68
2022-11-23T03:16:40.085Z,77.44
2022-11-23T03:19:06.533Z,78.26
2022-11-23T03:21:32.957Z,77.14
2022-11-23T03:23:59.365Z,77.28
2022-11-23T03:26:25.801Z,77.93
2022-11-23T03:28:52.186Z,77.89
2022-11-23T03:31:18.556Z,77.58
2022-11-23T03:33:44.956Z,77.78
2022-11-23T03:36:11.369Z,77.31
2022-11-23T03:38:37.725Z,77.60
2022-11-23T03:41:04.138Z,77.83
2022-11-23T03:43:30.558Z,77.21
2022-11-23T03:45:56.976Z,76.71
2022-11-23T03:48:23.459Z,77.78
2022-11-23T03:50:49.874Z,77.15
2022-11-23T03:53:16.324Z,77.21
2022-11-23T03:55:42.688Z,76.85
2022-11-23T03:58:09.126Z,78.00
2022-11-23T04:00:35.658Z,76.93
2022-11-23T04:03:02.231Z,77.73
2022-11-23T04:05:28.777Z,78.30
2022-11-23T04:07:55.186Z,77.38
2022-11-23T04:10:21.959Z,77.77
2022-11-23T04:12:54.220Z,76.46
2022-11-23T04:15:20.865Z,77.20
2022-11-23T04:17:47.457Z,77.11
2022-11-23T04:20:14.798Z,77.78
2022-11-23T04:22:41.343Z,77.21
2022-11-23T04:25:08.300Z,77.37
2022-11-23T04:27:34.726Z,76.70
2022-11-23T04:30:01.119Z,77.85
2022-11-23T04:32:27.540Z,77.78
2022-11-23T04:34:53.973Z,77.39
2022-11-23T04:37:20.369Z,78.35
2022-11-23T04:39:46.794Z,76.53
2022-11-23T04:42:14.000Z,77.48
2022-11-23T04:44:40.392Z,77.43
2022-11-23T04:47:07.488Z,77.49
2022-11-23T04:49:34.185Z,77.12
2022-11-23T04:52:00.816Z,76.97
2022-11-23T04:54:27.207Z,77.46
2022-11-23T04:56:54.205Z,76.93
2022-11-23T04:59:22.097Z,77.70
2022-11-23T05:01:49.336Z,76.78
2022-11-23T05:04:17.937Z,77.76
2022-11-23T05:06:45.193Z,78.18
2022-11-23T05:09:11.868Z,77.35
2022-11-23T05:11:38.413Z,77.87
2022-11-23T05:14:05.053Z,77.22
2022-11-23T05:16:31.437Z,77.53
2022-11-23T05:18:57.809Z,77.70
2022-11-23T05:21:24.181Z,76.63
2022-11-23T05:23:50.644Z,77.79
2022-11-23T05:26:17.072Z,77.47
2022-11-23T05:28:43.465Z,77.45
2022-11-23T05:31:10.202Z,77.92
2022-11-23T05:33:36.904Z,77.89
2022-11-23T05:36:03.734Z,77.09
2022-11-23T05:38:30.138Z,77.57
2022-11-23T05:40:56.559Z,76.48
2022-11-23T05:43:22.944Z,77.06
2022-11-23T05:45:49.788Z,77.09
2022-11-23T05:48:16.284Z,77.80
2022-11-23T05:50:42.683Z,77.98
2022-11-23T05:53:09.870Z,77.89
2022-11-23T05:55:36.396Z,77.34
2022-11-23T05:58:03.729Z,77.79
2022-11-23T06:00:30.212Z,77.53
2022-11-23T06:03:01.513Z,77.27
2022-11-23T06:05:29.005Z,76.99
2022-11-23T06:07:55.926Z,77.13
2022-11-23T06:10:23.047Z,76.97
2022-11-23T06:12:50.028Z,77.13
2022-11-23T06:15:17.896Z,77.28
2022-11-23T06:17:44.639Z,77.46
2022-11-23T06:20:11.406Z,77.30
2022-11-23T06:22:37.792Z,78.04
2022-11-23T06:25:04.420Z,77.94
2022-11-23T06:27:30.860Z,76.65
2022-11-23T06:29:57.296Z,77.01
2022-11-23T06:32:23.705Z,78.49
2022-11-23T06:34:50.139Z,77.50
2022-11-23T06:37:16.637Z,77.92
2022-11-23T06:39:43.124Z,76.00
2022-11-23T06:42:38.558Z,77.79
2022-11-23T06:44:55.957Z,76.11
2022-11-23T06:47:26.445Z,77.46
2022-11-23T06:49:53.126Z,76.55
2022-11-23T06:52:19.612Z,76.48
2022-11-23T06:54:46.410Z,77.38
2022-11-23T06:57:13.016Z,77.00
2022-11-23T06:59:44.315Z,76.09
2022-11-23T07:02:12.132Z,76.99
2022-11-23T07:04:38.537Z,75.90
2022-11-23T07:07:05.114Z,75.38
2022-11-23T07:09:31.841Z,76.99
2022-11-23T07:11:58.500Z,76.54
2022-11-23T07:14:24.892Z,76.56
2022-11-23T07:16:51.596Z,77.72
2022-11-23T07:19:17.960Z,76.87
2022-11-23T07:21:45.718Z,76.56
2022-11-23T07:24:12.181Z,76.49
2022-11-23T07:26:38.574Z,77.48
2022-11-23T07:29:05.022Z,76.86
2022-11-23T07:31:31.496Z,77.05
2022-11-23T07:33:57.928Z,76.91
2022-11-23T07:36:24.732Z,78.16
2022-11-23T07:38:51.133Z,77.23
2022-11-23T07:41:17.571Z,76.92
2022-11-23T07:43:43.970Z,75.81
2022-11-23T07:46:10.350Z,77.60
2022-11-23T07:48:36.894Z,75.91
2022-11-23T07:51:03.572Z,77.46
2022-11-23T07:53:30.248Z,76.90
2022-11-23T07:56:00.582Z,77.24
2022-11-23T07:58:27.366Z,76.80
2022-11-23T08:00:53.792Z,75.71
2022-11-23T08:03:27.685Z,76.08
2022-11-23T08:05:54.783Z,76.47
2022-11-23T08:08:21.186Z,76.20
2022-11-23T08:10:53.000Z,76.37
2022-11-23T08:13:20.962Z,77.83
2022-11-23T08:15:53.231Z,76.13
2022-11-23T08:18:21.645Z,77.23
2022-11-23T08:20:48.159Z,76.83
2022-11-23T08:23:14.606Z,76.32
2022-11-23T08:25:41.069Z,76.81
2022-11-23T08:28:07.525Z,77.12
2022-11-23T08:30:34.421Z,76.32
2022-11-23T08:33:08.272Z,76.64
2022-11-23T08:35:36.502Z,75.93
2022-11-23T08:38:03.997Z,74.91
2022-11-23T08:40:31.130Z,75.82
2022-11-23T08:42:57.563Z,76.37
2022-11-23T08:45:24.461Z,76.10
2022-11-23T08:47:51.368Z,75.34
2022-11-23T08:50:18.114Z,76.11
2022-11-23T08:52:44.624Z,74.87
2022-11-23T08:55:11.591Z,75.03
2022-11-23T08:57:38.420Z,76.92
2022-11-23T09:00:05.852Z,75.38
2022-11-23T09:02:32.353Z,76.58
2022-11-23T09:04:58.800Z,76.06
2022-11-23T09:07:25.241Z,75.04
2022-11-23T09:09:51.656Z,76.74
2022-11-23T09:12:18.071Z,75.69
2022-11-23T09:14:44.464Z,75.84
2022-11-23T09:17:10.900Z,77.18
2022-11-23T09:19:37.262Z,76.37
2022-11-23T09:22:03.710Z,75.44
2022-11-23T09:24:30.252Z,75.89
2022-11-23T09:26:56.913Z,76.53
2022-11-23T09:29:25.318Z,75.58
2022-11-23T09:31:51.809Z,75.94
2022-11-23T09:34:18.204Z,75.90
2022-11-23T09:36:44.598Z,76.02
2022-11-23T09:39:11.712Z,76.01
2022-11-23T09:41:50.176Z,75.32
2022-11-23T09:44:55.354Z,76.05
2022-11-23T09:47:28.835Z,75.24
2022-11-23T09:50:03.143Z,75.26
2022-11-23T09:52:30.754Z,74.61
2022-11-23T09:55:03.226Z,75.94
2022-11-23T09:57:33.658Z,76.10
2022-11-23T10:00:29.365Z,76.03
2022-11-23T10:02:55.795Z,74.75
2022-11-23T10:05:25.357Z,75.01
2022-11-23T10:08:13.227Z,75.20
2022-11-23T10:10:44.397Z,75.82
2022-11-23T10:13:28.793Z,75.04
2022-11-23T10:16:21.230Z,75.41
2022-11-23T10:19:15.460Z,74.70
2022-11-23T10:22:20.028Z,75.76
2022-11-23T10:24:50.851Z,74.93
2022-11-23T10:27:20.666Z,75.60
2022-11-23T10:29:48.860Z,75.02
2022-11-23T10:32:31.119Z,75.33
2022-11-23T10:35:04.122Z,75.20
2022-11-23T10:37:32.162Z,74.78
2022-11-23T10:39:58.777Z,74.36
2022-11-23T10:42:32.176Z,74.94
2022-11-23T10:45:00.965Z,74.53
2022-11-23T10:47:39.193Z,74.54
2022-11-23T10:50:27.554Z,74.53
2022-11-23T10:52:57.850Z,75.18
2022-11-23T10:55:28.548Z,75.05
2022-11-23T10:57:56.132Z,75.25
2022-11-23T11:00:30.043Z,75.14
2022-11-23T11:02:58.687Z,74.99
2022-11-23T11:06:07.096Z,75.23
2022-11-23T11:08:20.903Z,75.01
2022-11-23T11:10:58.979Z,74.21
2022-11-23T11:13:41.785Z,75.33
2022-11-23T11:16:35.864Z,74.94
2022-11-23T11:19:36.010Z,74.93
2022-11-23T11:22:24.485Z,75.22
2022-11-23T11:24:51.284Z,74.74
2022-11-23T11:27:22.742Z,75.00
2022-11-23T11:29:52.737Z,74.87
2022-11-23T11:32:38.722Z,75.04
2022-11-23T11:35:26.922Z,75.79
2022-11-23T11:38:00.002Z,75.30
2022-11-23T11:40:33.317Z,75.38
2022-11-23T11:43:02.640Z,75.01
2022-11-23T11:45:38.602Z,74.85
2022-11-23T11:48:14.876Z,75.13
2022-11-23T11:50:53.661Z,75.15
2022-11-23T11:53:53.211Z,74.44
2022-11-23T11:56:30.274Z,74.64
2022-11-23T11:59:23.852Z,75.52
2022-11-23T12:01:50.200Z,74.75
2022-11-23T12:04:35.711Z,75.20
2022-11-23T12:07:09.606Z,75.32
2022-11-23T12:09:42.391Z,75.45
2022-11-23T12:12:16.054Z,75.11
2022-11-23T12:14:43.349Z,75.38
2022-11-23T12:17:33.548Z,75.18
2022-11-23T12:20:24.418Z,75.75
2022-11-23T12:23:18.979Z,75.95
2022-11-23T12:25:58.573Z,75.70
2022-11-23T12:28:52.682Z,75.83
2022-11-23T12:32:04.297Z,75.82
2022-11-23T12:34:48.367Z,75.73
2022-11-23T12:37:31.375Z,76.23
2022-11-23T12:40:11.074Z,75.53
2022-11-23T12:43:12.707Z,75.52
2022-11-23T12:45:48.381Z,75.53
2022-11-23T12:48:20.650Z,74.74
2022-11-23T12:50:59.020Z,74.42
2022-11-23T12:53:42.723Z,74.33
2022-11-23T12:56:47.335Z,74.87
2022-11-23T12:59:17.289Z,74.66
2022-11-23T13:01:53.416Z,74.77
2022-11-23T13:04:37.510Z,74.48
2022-11-23T13:07:49.458Z,74.91
2022-11-23T13:10:35.233Z,74.88
2022-11-23T13:13:16.223Z,74.83
2022-11-23T13:16:05.298Z,74.96
2022-11-23T13:19:13.241Z,75.05
2022-11-23T13:21:44.452Z,74.96
2022-11-23T13:24:31.542Z,75.07
2022-11-23T13:27:31.434Z,75.02
2022-11-23T13:30:01.466Z,75.33
2022-11-23T13:32:40.390Z,75.08
2022-11-23T13:35:18.775Z,74.70
2022-11-23T13:37:54.283Z,75.31
2022-11-23T13:40:22.499Z,75.02
2022-11-23T13:42:51.947Z,74.68
2022-11-23T13:45:25.880Z,75.21
2022-11-23T13:48:55.445Z,75.25
2022-11-23T13:51:06.309Z,75.39
2022-11-23T13:53:42.950Z,74.61
2022-11-23T13:56:29.166Z,74.93
2022-11-23T13:58:59.028Z,75.11
2022-11-23T14:02:03.121Z,74.98
2022-11-23T14:04:48.193Z,75.39
2022-11-23T14:07:27.364Z,75.34
2022-11-23T14:10:21.341Z,75.56
2022-11-23T14:13:08.582Z,75.52
2022-11-23T14:15:38.780Z,75.49
2022-11-23T14:18:32.826Z,75.46
2022-11-23T14:21:14.735Z,75.63
2022-11-23T14:24:15.719Z,75.36
2022-11-23T14:26:42.395Z,75.31
2022-11-23T14:29:17.915Z,75.35
2022-11-23T14:32:02.636Z,75.11
2022-11-23T14:34:37.794Z,71.35
2022-11-23T14:37:22.425Z,74.76
2022-11-23T14:40:03.112Z,75.17
2022-11-23T14:42:31.056Z,75.44
2022-11-23T14:45:03.937Z,75.52
2022-11-23T14:47:32.073Z,76.14
2022-11-23T14:49:58.900Z,75.86
2022-11-23T14:52:31.811Z,75.71
2022-11-23T14:55:01.572Z,74.92
2022-11-23T14:57:46.645Z,76.00
2022-11-23T15:00:43.941Z,76.01
2022-11-23T15:03:48.682Z,75.76
2022-11-23T15:06:12.730Z,76.21
2022-11-23T15:08:50.429Z,76.01
2022-11-23T15:11:27.349Z,75.96
2022-11-23T15:14:04.671Z,75.87
2022-11-23T15:16:40.049Z,76.22
2022-11-23T15:19:27.569Z,76.25
2022-11-23T15:21:55.513Z,76.52
2022-11-23T15:24:28.526Z,76.72
2022-11-23T15:27:12.068Z,76.12
2022-11-23T15:29:39.835Z,75.99
2022-11-23T15:32:32.655Z,75.67
2022-11-23T15:35:06.795Z,75.67
2022-11-23T15:37:41.511Z,76.28
2022-11-23T15:40:13.636Z,75.77
2022-11-23T15:42:40.892Z,75.94
2022-11-23T15:45:33.955Z,76.41
2022-11-23T15:48:05.117Z,75.92
2022-11-23T15:50:34.293Z,76.11
2022-11-23T15:53:01.835Z,76.02
2022-11-23T15:55:30.150Z,76.20
2022-11-23T15:57:57.275Z,75.91
2022-11-23T16:00:26.158Z,76.57
2022-11-23T16:02:53.047Z,76.50
2022-11-23T16:05:23.806Z,76.27
2022-11-23T16:08:01.357Z,76.46
2022-11-23T16:10:33.403Z,76.77
2022-11-23T16:13:01.918Z,76.50
2022-11-23T16:15:37.585Z,75.99
2022-11-23T16:18:25.174Z,76.83
2022-11-23T16:20:55.971Z,77.04
2022-11-23T16:23:28.727Z,76.33
2022-11-23T16:25:59.395Z,76.27
2022-11-23T16:28:38.172Z,77.01
2022-11-23T16:31:05.091Z,76.15
2022-11-23T16:33:31.600Z,77.32
2022-11-23T16:35:58.280Z,77.29
2022-11-23T16:38:25.750Z,76.71
2022-11-23T16:40:52.361Z,76.01
2022-11-23T16:43:19.044Z,76.85
2022-11-23T16:45:47.750Z,76.64
2022-11-23T16:48:26.134Z,76.25
2022-11-23T16:50:57.005Z,76.98
2022-11-23T16:53:26.750Z,76.69
2022-11-23T16:55:54.557Z,76.20
2022-11-23T16:58:22.157Z,76.24
2022-11-23T17:00:49.580Z,77.11
2022-11-23T17:03:17.441Z,75.78
2022-11-23T17:05:43.908Z,75.80
2022-11-23T17:08:10.510Z,76.41
2022-11-23T17:10:38.942Z,77.19
2022-11-23T17:13:11.180Z,76.86
2022-11-23T17:15:37.989Z,76.13
2022-11-23T17:18:04.526Z,77.42
2022-11-23T17:20:31.132Z,76.44
2022-11-23T17:23:00.948Z,76.11
2022-11-23T17:25:27.835Z,77.32
2022-11-23T17:27:54.354Z,76.99
2022-11-23T17:30:22.273Z,75.87
2022-11-23T17:32:49.560Z,76.09
2022-11-23T17:35:16.847Z,76.10
2022-11-23T17:37:43.446Z,76.96
2022-11-23T17:40:21.421Z,75.66
2022-11-23T17:42:48.005Z,75.98
2022-11-23T17:45:14.862Z,75.75
2022-11-23T17:47:43.073Z,76.98
2022-11-23T17:50:13.804Z,77.35
2022-11-23T17:52:45.066Z,76.59
2022-11-23T17:55:12.702Z,77.42
2022-11-23T17:57:39.246Z,76.07
2022-11-23T18:00:12.180Z,76.67
2022-11-23T18:02:38.596Z,76.57
2022-11-23T18:05:05.291Z,77.34
2022-11-23T18:07:31.794Z,77.22
2022-11-23T18:09:58.343Z,75.81
2022-11-23T18:12:24.741Z,75.74
2022-11-23T18:14:51.227Z,76.35
2022-11-23T18:17:18.826Z,77.00
2022-11-23T18:19:45.248Z,75.72
2022-11-23T18:22:11.640Z,76.54
2022-11-23T18:24:38.166Z,77.80
2022-11-23T18:27:04.633Z,76.58
2022-11-23T18:29:31.489Z,76.31
2022-11-23T18:31:58.057Z,75.42
2022-11-23T18:34:24.507Z,75.43
2022-11-23T18:36:51.012Z,76.27
2022-11-23T18:39:17.425Z,76.09
2022-11-23T18:41:43.834Z,75.85
2022-11-23T18:44:10.418Z,76.73
2022-11-23T18:46:36.901Z,77.13
2022-11-23T18:49:03.544Z,75.57
2022-11-23T18:51:29.985Z,76.99
2022-11-23T18:53:57.686Z,76.16
2022-11-23T18:56:24.166Z,75.41
2022-11-23T18:58:50.730Z,74.26
2022-11-23T19:01:19.790Z,74.07
2022-11-23T19:03:49.003Z,73.92
2022-11-23T19:06:17.610Z,75.20
2022-11-23T19:08:50.205Z,74.51
2022-11-23T19:11:27.370Z,74.44
2022-11-23T19:13:56.445Z,75.55
2022-11-23T19:16:25.186Z,74.72
2022-11-23T19:18:59.342Z,75.25
2022-11-23T19:21:28.601Z,74.83
2022-11-23T19:23:56.767Z,76.32
2022-11-23T19:26:24.173Z,75.38
2022-11-23T19:28:51.936Z,76.89
2022-11-23T19:31:23.809Z,77.31
2022-11-23T19:33:52.396Z,76.92
2022-11-23T19:36:21.907Z,75.96
2022-11-23T19:38:49.253Z,76.24
2022-11-23T19:41:16.995Z,77.50
2022-11-23T19:43:43.448Z,77.15
2022-11-23T19:46:12.647Z,76.63
2022-11-23T19:48:40.285Z,76.67
2022-11-23T19:51:11.745Z,76.94
2022-11-23T19:53:39.949Z,76.26
2022-11-23T19:56:30.340Z,76.99
2022-11-23T19:58:58.595Z,76.89
2022-11-23T20:01:31.993Z,76.25
2022-11-23T20:04:08.012Z,75.96
2022-11-23T20:06:37.147Z,77.13
2022-11-23T20:09:09.705Z,76.48
2022-11-23T20:11:38.794Z,77.31
2022-11-23T20:14:06.112Z,76.57
2022-11-23T20:16:33.576Z,76.56
2022-11-23T20:19:02.632Z,76.75
2022-11-23T20:21:30.754Z,76.98
2022-11-23T20:24:05.242Z,77.60
2022-11-23T20:26:33.428Z,76.29
2022-11-23T20:29:00.488Z,77.94
2022-11-23T20:31:29.138Z,77.25
2022-11-23T20:33:56.577Z,77.08
2022-11-23T20:36:28.683Z,76.37
2022-11-23T20:38:56.242Z,76.71
2022-11-23T20:41:28.522Z,77.37
2022-11-23T20:43:57.407Z,76.20
2022-11-23T20:46:53.604Z,76.21
2022-11-23T20:49:12.089Z,76.03
2022-11-23T20:51:38.784Z,76.60
2022-11-23T20:54:07.354Z,77.69
2022-11-23T20:56:33.875Z,77.69
2022-11-23T20:59:00.611Z,76.40
2022-11-23T21:01:28.057Z,76.10
2022-11-23T21:03:59.396Z,76.15
2022-11-23T21:06:26.817Z,75.96
2022-11-23T21:08:54.611Z,76.05
2022-11-23T21:11:45.277Z,75.33
2022-11-23T21:14:17.768Z,76.09
2022-11-23T21:16:55.071Z,75.80
2022-11-23T21:19:24.301Z,75.95
2022-11-23T21:21:50.839Z,75.44
2022-11-23T21:24:17.656Z,75.06
2022-11-23T21:26:44.171Z,75.23
2022-11-23T21:29:11.428Z,75.77
2022-11-23T21:31:40.176Z,75.77
2022-11-23T21:34:10.404Z,75.81
2022-11-23T21:36:41.380Z,76.34
2022-11-23T21:39:10.420Z,76.52
2022-11-23T21:41:37.980Z,75.65
2022-11-23T21:44:09.220Z,75.74
2022-11-23T21:46:40.392Z,75.58
2022-11-23T21:49:07.944Z,75.75
2022-11-23T21:51:35.559Z,76.94
2022-11-23T21:54:05.406Z,76.05
2022-11-23T21:56:32.335Z,75.85
2022-11-23T21:58:59.316Z,77.65
2022-11-23T22:01:29.542Z,77.78
2022-11-23T22:03:59.946Z,76.99
2022-11-23T22:06:26.609Z,77.65
2022-11-23T22:08:55.091Z,78.03
2022-11-23T22:11:27.140Z,77.85
2022-11-23T22:13:56.499Z,77.51
2022-11-23T22:16:26.321Z,76.79
2022-11-23T22:18:55.792Z,77.29
2022-11-23T22:21:24.934Z,77.85
2022-11-23T22:23:51.502Z,77.44
2022-11-23T22:26:19.341Z,78.16
2022-11-23T22:28:48.067Z,77.10
2022-11-23T22:31:18.019Z,77.79
2022-11-23T22:33:46.006Z,77.58
2022-11-23T22:36:15.078Z,77.34
2022-11-23T22:38:42.170Z,78.55
2022-11-23T22:41:14.149Z,78.46
2022-11-23T22:43:40.991Z,78.21
2022-11-23T22:46:13.232Z,78.57
2022-11-23T22:48:42.822Z,77.29
2022-11-23T22:51:11.806Z,77.82
2022-11-23T22:53:44.582Z,76.81
2022-11-23T22:56:21.075Z,77.13
2022-11-23T22:58:48.655Z,78.06
2022-11-23T23:01:17.963Z,77.46
2022-11-23T23:03:45.257Z,78.46
2022-11-23T23:06:17.196Z,77.39
2022-11-23T23:08:44.056Z,78.21
2022-11-23T23:11:10.659Z,77.77
2022-11-23T23:13:37.410Z,77.59
2022-11-23T23:16:07.337Z,77.64
2022-11-23T23:18:34.329Z,78.41
2022-11-23T23:21:10.915Z,78.00
2022-11-23T23:23:43.097Z,79.22
2022-11-23T23:26:10.627Z,78.18
2022-11-23T23:28:37.380Z,79.34
2022-11-23T23:31:06.614Z,79.21
2022-11-23T23:33:33.773Z,79.21
2022-11-23T23:36:08.171Z,78.34
2022-11-23T23:38:36.221Z,78.85
2022-11-23T23:41:02.899Z,79.67
2022-11-23T23:43:29.755Z,79.39
2022-11-23T23:45:58.960Z,78.75
2022-11-23T23:48:28.558Z,78.24
2022-11-23T23:50:55.604Z,79.71
2022-11-23T23:53:22.238Z,78.44
2022-11-23T23:55:59.540Z,79.40
2022-11-23T23:58:26.091Z,78.04
